createdAt,value
2019-03-21T00:02:22.189Z,30.47
2019-03-21T00:04:55.260Z,30.57
2019-03-21T00:07:26.320Z,30.00
2019-03-21T00:10:48.942Z,31.73
2019-03-21T00:13:18.801Z,30.20
2019-03-21T00:15:48.668Z,31.43
2019-03-21T00:18:18.563Z,30.50
2019-03-21T00:20:48.402Z,28.80
2019-03-21T00:23:18.347Z,31.30
2019-03-21T00:25:48.208Z,32.00
2019-03-21T00:28:18.182Z,31.57
2019-03-21T00:30:48.019Z,32.53
2019-03-21T00:33:18.796Z,31.73
2019-03-21T00:35:48.625Z,30.90
2019-03-21T00:38:18.547Z,31.80
2019-03-21T00:40:48.398Z,31.80
2019-03-21T00:43:19.466Z,30.37
2019-03-21T00:45:49.473Z,32.10
2019-03-21T00:48:20.583Z,32.10
2019-03-21T00:50:50.441Z,32.80
2019-03-21T00:53:20.309Z,31.57
2019-03-21T00:55:50.905Z,32.43
2019-03-21T00:58:20.901Z,30.07
2019-03-21T01:00:53.199Z,29.00
2019-03-21T01:03:23.150Z,31.40
2019-03-21T01:05:53.067Z,30.10
2019-03-21T01:08:23.048Z,32.90
2019-03-21T01:10:53.099Z,33.73
2019-03-21T01:13:25.020Z,33.90
2019-03-21T01:15:54.888Z,34.70
2019-03-21T01:18:24.822Z,34.47
2019-03-21T01:20:54.683Z,35.70
2019-03-21T01:23:24.656Z,33.50
2019-03-21T01:25:55.692Z,35.53
2019-03-21T01:28:25.643Z,35.67
2019-03-21T01:30:55.560Z,35.63
2019-03-21T01:33:25.760Z,37.50
2019-03-21T01:35:55.682Z,35.30
2019-03-21T01:38:25.611Z,37.03
2019-03-21T01:40:55.492Z,39.80
2019-03-21T01:43:25.345Z,36.37
2019-03-21T01:45:55.194Z,38.83
2019-03-21T01:48:25.083Z,38.27
2019-03-21T01:50:55.010Z,37.70
2019-03-21T01:53:24.885Z,36.97
2019-03-21T01:55:54.812Z,39.93
2019-03-21T01:58:24.660Z,39.93
2019-03-21T02:00:55.704Z,38.37
2019-03-21T02:03:25.545Z,38.87
2019-03-21T02:05:55.478Z,40.83
2019-03-21T02:08:25.377Z,41.73
2019-03-21T02:10:55.239Z,39.80
2019-03-21T02:13:25.184Z,42.23
2019-03-21T02:15:55.044Z,43.53
2019-03-21T02:18:24.905Z,42.10
2019-03-21T02:20:54.888Z,43.50
2019-03-21T02:23:26.131Z,44.67
2019-03-21T02:25:55.972Z,44.00
2019-03-21T02:28:25.915Z,46.27
2019-03-21T02:30:55.856Z,44.83
2019-03-21T02:33:28.763Z,45.40
2019-03-21T02:35:58.630Z,47.30
2019-03-21T02:38:28.591Z,48.17
2019-03-21T02:40:59.450Z,45.90
2019-03-21T02:43:29.314Z,47.73
2019-03-21T02:45:59.150Z,47.60
2019-03-21T02:48:29.148Z,47.17
2019-03-21T02:50:59.062Z,46.37
2019-03-21T02:53:28.943Z,48.40
2019-03-21T02:55:58.783Z,49.83
2019-03-21T02:58:28.750Z,43.80
2019-03-21T03:00:58.724Z,47.97
2019-03-21T03:03:28.567Z,47.43
2019-03-21T03:05:58.485Z,44.87
2019-03-21T03:08:28.440Z,46.40
2019-03-21T03:10:58.341Z,47.30
2019-03-21T03:13:28.198Z,44.03
2019-03-21T03:15:58.117Z,42.77
2019-03-21T03:18:28.016Z,43.30
2019-03-21T03:20:57.948Z,47.47
2019-03-21T03:23:27.887Z,46.77
2019-03-21T03:25:57.848Z,43.10
2019-03-21T03:28:28.033Z,45.77
2019-03-21T03:30:58.227Z,44.93
2019-03-21T03:33:28.092Z,43.67
2019-03-21T03:35:57.950Z,44.70
2019-03-21T03:38:27.853Z,44.90
2019-03-21T03:41:00.359Z,44.67
2019-03-21T03:43:30.228Z,43.53
2019-03-21T03:46:00.098Z,42.87
2019-03-21T03:48:30.122Z,43.47
2019-03-21T03:51:00.053Z,46.03
2019-03-21T03:53:30.051Z,41.10
2019-03-21T03:56:00.006Z,43.43
2019-03-21T03:58:29.867Z,44.53
2019-03-21T04:01:00.066Z,41.97
2019-03-21T04:03:33.092Z,44.20
2019-03-21T04:06:05.094Z,41.73
2019-03-21T04:08:37.870Z,43.57
2019-03-21T04:11:10.365Z,42.27
2019-03-21T04:13:40.861Z,42.50
2019-03-21T04:16:10.676Z,41.53
2019-03-21T04:18:40.587Z,39.23
2019-03-21T04:21:10.752Z,42.03
2019-03-21T04:23:40.602Z,41.53
2019-03-21T04:26:21.429Z,39.77
2019-03-21T04:28:51.462Z,40.57
2019-03-21T04:31:21.325Z,40.27
2019-03-21T04:33:52.335Z,39.83
2019-03-21T04:36:22.404Z,36.37
2019-03-21T04:38:52.337Z,36.30
2019-03-21T04:41:22.243Z,38.60
2019-03-21T04:43:52.111Z,39.10
2019-03-21T04:46:21.971Z,35.90
2019-03-21T04:48:51.899Z,34.53
2019-03-21T04:51:22.361Z,37.77
2019-03-21T04:53:53.518Z,34.90
2019-03-21T04:56:23.870Z,36.50
2019-03-21T04:58:53.823Z,34.10
2019-03-21T05:01:23.811Z,36.30
2019-03-21T05:03:53.774Z,36.77
2019-03-21T05:06:23.683Z,33.37
2019-03-21T05:08:53.558Z,36.63
2019-03-21T05:11:23.401Z,35.50
2019-03-21T05:13:54.344Z,34.30
2019-03-21T05:16:24.300Z,35.43
2019-03-21T05:18:55.164Z,33.33
2019-03-21T05:21:25.150Z,32.07
2019-03-21T05:23:55.024Z,34.23
2019-03-21T05:26:24.913Z,32.83
2019-03-21T05:28:54.841Z,34.73
2019-03-21T05:31:28.150Z,34.73
2019-03-21T05:33:58.084Z,34.10
2019-03-21T05:36:27.949Z,34.23
2019-03-21T05:38:57.808Z,33.27
2019-03-21T05:41:27.682Z,34.83
2019-03-21T05:44:01.231Z,34.40
2019-03-21T05:46:31.423Z,33.30
2019-03-21T05:49:01.333Z,31.77
2019-03-21T05:51:31.254Z,32.93
2019-03-21T05:54:01.132Z,33.43
2019-03-21T05:56:31.143Z,32.23
2019-03-21T05:59:01.106Z,30.60
2019-03-21T06:01:31.071Z,32.83
2019-03-21T06:04:01.261Z,33.83
2019-03-21T06:06:42.335Z,32.23
2019-03-21T06:09:13.987Z,32.87
2019-03-21T06:11:46.443Z,29.93
2019-03-21T06:14:16.557Z,32.17
2019-03-21T06:16:46.460Z,32.97
2019-03-21T06:19:43.811Z,32.90
2019-03-21T06:23:00.690Z,34.40
2019-03-21T06:26:20.736Z,35.83
2019-03-21T06:28:50.620Z,36.87
2019-03-21T06:31:20.503Z,34.07
2019-03-21T06:33:50.422Z,35.37
2019-03-21T06:36:20.444Z,33.27
2019-03-21T06:38:50.315Z,33.50
2019-03-21T06:41:20.167Z,36.60
2019-03-21T06:43:50.042Z,36.47
2019-03-21T06:46:19.975Z,37.43
2019-03-21T06:48:49.971Z,37.07
2019-03-21T06:51:19.944Z,36.83
2019-03-21T06:53:50.006Z,37.60
2019-03-21T06:56:19.930Z,37.63
2019-03-21T06:58:51.651Z,37.57
2019-03-21T07:01:21.468Z,34.93
2019-03-21T07:03:51.450Z,34.87
2019-03-21T07:06:21.302Z,35.47
2019-03-21T07:08:51.302Z,34.83
2019-03-21T07:11:21.279Z,36.00
2019-03-21T07:13:51.334Z,36.07
2019-03-21T07:16:21.280Z,34.43
2019-03-21T07:18:51.305Z,34.57
2019-03-21T07:21:21.299Z,36.23
2019-03-21T07:23:51.345Z,33.70
2019-03-21T07:26:21.288Z,36.03
2019-03-21T07:28:51.289Z,32.97
2019-03-21T07:31:21.374Z,34.17
2019-03-21T07:33:52.792Z,35.93
2019-03-21T07:36:22.750Z,33.33
2019-03-21T07:38:52.642Z,35.20
2019-03-21T07:41:22.552Z,34.80
2019-03-21T07:43:52.643Z,30.27
2019-03-21T07:46:22.546Z,35.40
2019-03-21T07:48:52.463Z,34.07
2019-03-21T07:51:22.477Z,34.33
2019-03-21T07:53:52.457Z,32.63
2019-03-21T07:56:24.886Z,33.37
2019-03-21T07:58:54.063Z,33.73
2019-03-21T08:01:24.017Z,32.50
2019-03-21T08:03:53.995Z,32.07
2019-03-21T08:06:25.223Z,32.07
2019-03-21T08:08:55.166Z,31.67
2019-03-21T08:11:25.121Z,33.70
2019-03-21T08:13:55.085Z,31.90
2019-03-21T08:16:25.077Z,33.67
2019-03-21T08:18:55.008Z,29.70
2019-03-21T08:21:24.923Z,30.37
2019-03-21T08:23:54.804Z,29.40
2019-03-21T08:26:24.829Z,29.20
2019-03-21T08:28:54.769Z,29.50
2019-03-21T08:31:24.763Z,30.33
2019-03-21T08:33:54.646Z,30.63
2019-03-21T08:36:24.631Z,29.60
2019-03-21T08:38:54.502Z,28.40
2019-03-21T08:41:24.416Z,27.77
2019-03-21T08:43:54.262Z,25.73
2019-03-21T08:46:24.179Z,26.73
2019-03-21T08:48:54.036Z,26.27
2019-03-21T08:51:23.902Z,26.10
2019-03-21T08:53:53.820Z,23.50
2019-03-21T08:56:23.812Z,37.00
2019-03-21T08:58:53.726Z,33.93
2019-03-21T09:01:23.675Z,31.97
2019-03-21T09:03:53.665Z,29.40
2019-03-21T09:06:23.675Z,35.10
2019-03-21T09:08:53.594Z,26.20
2019-03-21T09:11:23.526Z,24.43
2019-03-21T09:13:54.664Z,22.20
2019-03-21T09:16:24.698Z,21.03
2019-03-21T09:18:54.736Z,25.27
2019-03-21T09:21:24.770Z,24.73
2019-03-21T09:23:54.916Z,22.23
2019-03-21T09:26:24.807Z,23.17
2019-03-21T09:28:54.807Z,21.53
2019-03-21T09:31:24.796Z,21.83
2019-03-21T09:33:54.748Z,19.73
2019-03-21T09:36:25.342Z,21.40
2019-03-21T09:38:55.357Z,21.93
2019-03-21T09:41:25.290Z,21.90
2019-03-21T09:43:55.230Z,22.33
2019-03-21T09:46:25.139Z,21.27
2019-03-21T09:48:55.093Z,20.97
2019-03-21T09:51:30.852Z,24.77
2019-03-21T09:54:08.911Z,21.67
2019-03-21T09:56:29.620Z,21.87
2019-03-21T09:58:59.528Z,21.93
2019-03-21T10:01:29.514Z,21.00
2019-03-21T10:03:59.482Z,21.00
2019-03-21T10:06:29.507Z,22.20
2019-03-21T10:08:59.469Z,21.60
2019-03-21T10:11:29.458Z,20.27
2019-03-21T10:13:59.382Z,21.00
2019-03-21T10:16:29.297Z,22.23
2019-03-21T10:18:59.216Z,22.53
2019-03-21T10:21:29.137Z,23.17
2019-03-21T10:23:59.018Z,22.10
2019-03-21T10:26:29.071Z,19.87
2019-03-21T10:28:59.025Z,20.03
2019-03-21T10:31:28.924Z,20.40
2019-03-21T10:33:58.928Z,21.37
2019-03-21T10:36:30.085Z,22.00
2019-03-21T10:39:00.065Z,22.07
2019-03-21T10:41:29.912Z,18.57
2019-03-21T10:43:59.904Z,17.47
2019-03-21T10:46:29.743Z,17.53
2019-03-21T10:48:59.773Z,15.90
2019-03-21T10:51:29.710Z,17.17
2019-03-21T10:53:59.677Z,16.87
2019-03-21T10:56:29.549Z,16.63
2019-03-21T10:58:59.406Z,17.73
2019-03-21T11:01:29.363Z,17.93
2019-03-21T11:03:59.342Z,16.50
2019-03-21T11:06:29.276Z,16.57
2019-03-21T11:08:59.370Z,17.97
2019-03-21T11:11:29.296Z,16.90
2019-03-21T11:13:59.318Z,16.70
2019-03-21T11:16:31.405Z,18.80
2019-03-21T11:19:00.876Z,18.60
2019-03-21T11:21:30.854Z,17.03
2019-03-21T11:24:00.812Z,17.40
2019-03-21T11:26:30.787Z,16.80
2019-03-21T11:29:00.803Z,17.07
2019-03-21T11:31:30.754Z,17.23
2019-03-21T11:34:00.792Z,18.27
2019-03-21T11:36:38.196Z,17.60
2019-03-21T11:39:02.371Z,17.33
2019-03-21T11:41:32.357Z,16.97
2019-03-21T11:44:03.904Z,17.17
2019-03-21T11:46:33.840Z,18.03
2019-03-21T11:49:03.810Z,18.87
2019-03-21T11:51:34.857Z,17.47
2019-03-21T11:54:04.873Z,17.63
2019-03-21T11:56:34.859Z,18.60
2019-03-21T11:59:04.974Z,17.67
2019-03-21T12:01:34.998Z,18.10
2019-03-21T12:04:06.053Z,17.63
2019-03-21T12:06:36.089Z,18.27
2019-03-21T12:09:08.881Z,18.13
2019-03-21T12:11:38.738Z,17.57
2019-03-21T12:14:08.747Z,17.97
2019-03-21T12:16:38.636Z,17.03
2019-03-21T12:19:08.792Z,18.50
2019-03-21T12:21:38.850Z,18.83
2019-03-21T12:24:08.895Z,18.53
2019-03-21T12:26:38.891Z,19.33
2019-03-21T12:29:08.891Z,20.30
2019-03-21T12:31:38.842Z,19.87
2019-03-21T12:34:08.819Z,19.07
2019-03-21T12:36:38.764Z,18.57
2019-03-21T12:39:10.099Z,19.83
2019-03-21T12:41:40.132Z,19.40
2019-03-21T12:44:10.071Z,21.10
2019-03-21T12:46:41.530Z,20.67
2019-03-21T12:49:11.511Z,20.90
2019-03-21T12:51:41.527Z,21.20
2019-03-21T12:54:11.568Z,19.93
2019-03-21T12:56:41.601Z,20.63
2019-03-21T12:59:11.535Z,22.03
2019-03-21T13:01:41.479Z,19.73
2019-03-21T13:04:11.500Z,20.07
2019-03-21T13:06:41.502Z,20.53
2019-03-21T13:09:11.491Z,21.00
2019-03-21T13:11:41.359Z,21.67
2019-03-21T13:14:11.265Z,22.73
2019-03-21T13:16:41.172Z,21.40
2019-03-21T13:19:11.061Z,20.97
2019-03-21T13:21:41.016Z,20.53
2019-03-21T13:24:11.022Z,20.80
2019-03-21T13:26:41.009Z,19.73
2019-03-21T13:29:10.995Z,19.60
2019-03-21T13:31:40.895Z,21.53
2019-03-21T13:34:11.033Z,19.83
2019-03-21T13:36:40.990Z,21.07
2019-03-21T13:39:10.937Z,20.37
2019-03-21T13:41:40.896Z,20.50
2019-03-21T13:44:10.843Z,19.50
2019-03-21T13:46:40.737Z,19.57
2019-03-21T13:49:10.646Z,20.47
2019-03-21T13:51:40.592Z,20.67
2019-03-21T13:54:10.438Z,19.17
2019-03-21T13:56:40.472Z,19.27
2019-03-21T13:59:10.425Z,19.80
2019-03-21T14:01:40.298Z,19.90
2019-03-21T14:04:10.105Z,19.63
2019-03-21T14:06:41.860Z,20.33
2019-03-21T14:09:11.840Z,20.13
2019-03-21T14:11:41.774Z,19.70
2019-03-21T14:14:11.808Z,21.20
2019-03-21T14:16:41.671Z,20.30
2019-03-21T14:19:11.787Z,20.80
2019-03-21T14:21:41.732Z,20.77
2019-03-21T14:24:11.802Z,19.67
2019-03-21T14:26:41.802Z,21.17
2019-03-21T14:29:12.962Z,19.87
2019-03-21T14:31:43.157Z,18.93
2019-03-21T14:34:13.200Z,21.07
2019-03-21T14:36:43.270Z,20.40
2019-03-21T14:39:13.259Z,20.30
2019-03-21T14:41:43.264Z,19.77
2019-03-21T14:44:13.299Z,19.57
2019-03-21T14:46:43.153Z,19.10
2019-03-21T14:49:13.037Z,23.17
2019-03-21T14:51:42.901Z,21.27
2019-03-21T14:54:12.866Z,23.30
2019-03-21T14:56:42.865Z,24.53
2019-03-21T14:59:12.924Z,26.77
2019-03-21T15:01:42.886Z,20.77
2019-03-21T15:04:12.854Z,22.77
2019-03-21T15:06:42.698Z,25.27
2019-03-21T15:09:12.728Z,21.43
2019-03-21T15:11:42.771Z,21.23
2019-03-21T15:14:12.835Z,20.23
2019-03-21T15:16:42.809Z,20.60
2019-03-21T15:19:12.795Z,20.43
2019-03-21T15:21:42.823Z,20.13
2019-03-21T15:24:12.690Z,21.57
2019-03-21T15:26:42.675Z,20.97
2019-03-21T15:29:12.788Z,20.53
2019-03-21T15:31:42.865Z,21.47
2019-03-21T15:34:12.770Z,21.90
2019-03-21T15:36:42.817Z,20.63
2019-03-21T15:39:12.784Z,22.30
2019-03-21T15:41:42.772Z,21.47
2019-03-21T15:44:12.779Z,20.57
2019-03-21T15:46:42.798Z,22.40
2019-03-21T15:49:12.699Z,22.57
2019-03-21T15:51:42.607Z,22.20
2019-03-21T15:54:12.628Z,23.50
2019-03-21T15:56:42.483Z,21.73
2019-03-21T15:59:12.486Z,21.47
2019-03-21T16:01:42.367Z,21.40
2019-03-21T16:04:12.412Z,20.77
2019-03-21T16:06:42.407Z,21.63
2019-03-21T16:09:12.382Z,23.23
2019-03-21T16:11:42.309Z,23.23
2019-03-21T16:14:12.422Z,22.10
2019-03-21T16:16:42.295Z,23.13
2019-03-21T16:19:12.234Z,23.20
2019-03-21T16:21:42.213Z,23.83
2019-03-21T16:24:12.186Z,22.97
2019-03-21T16:26:42.180Z,24.43
2019-03-21T16:29:12.224Z,24.00
2019-03-21T16:31:42.210Z,24.60
2019-03-21T16:34:12.126Z,23.93
2019-03-21T16:36:42.089Z,24.57
2019-03-21T16:39:12.035Z,26.07
2019-03-21T16:41:42.021Z,25.50
2019-03-21T16:44:11.979Z,25.33
2019-03-21T16:46:41.952Z,26.97
2019-03-21T16:49:11.874Z,26.83
2019-03-21T16:51:41.825Z,24.77
2019-03-21T16:54:16.911Z,26.23
2019-03-21T16:56:43.341Z,27.57
2019-03-21T16:59:13.290Z,27.03
2019-03-21T17:01:43.305Z,27.23
2019-03-21T17:04:13.237Z,27.73
2019-03-21T17:06:43.193Z,27.60
2019-03-21T17:09:13.147Z,28.73
2019-03-21T17:11:43.088Z,28.37
2019-03-21T17:14:13.098Z,27.17
2019-03-21T17:16:43.044Z,27.50
2019-03-21T17:19:12.993Z,29.93
2019-03-21T17:21:43.143Z,28.43
2019-03-21T17:24:13.088Z,28.40
2019-03-21T17:26:43.047Z,28.70
2019-03-21T17:29:13.119Z,29.13
2019-03-21T17:31:42.977Z,30.20
2019-03-21T17:34:12.823Z,29.70
2019-03-21T17:36:42.754Z,28.57
2019-03-21T17:39:12.894Z,31.27
2019-03-21T17:41:43.392Z,31.53
2019-03-21T17:44:13.466Z,33.47
2019-03-21T17:46:43.392Z,32.50
2019-03-21T17:49:13.258Z,31.50
2019-03-21T17:51:43.180Z,30.77
2019-03-21T17:54:13.044Z,30.73
2019-03-21T17:56:42.971Z,30.60
2019-03-21T17:59:12.902Z,29.83
2019-03-21T18:01:42.958Z,32.07
2019-03-21T18:04:12.793Z,32.70
2019-03-21T18:06:43.467Z,34.33
2019-03-21T18:09:13.424Z,35.37
2019-03-21T18:11:43.382Z,33.17
2019-03-21T18:14:13.403Z,32.70
2019-03-21T18:16:43.417Z,34.77
2019-03-21T18:19:13.363Z,35.10
2019-03-21T18:21:43.336Z,34.33
2019-03-21T18:24:13.199Z,34.60
2019-03-21T18:26:43.014Z,34.50
2019-03-21T18:29:12.987Z,36.83
2019-03-21T18:31:42.927Z,38.60
2019-03-21T18:34:12.816Z,38.63
2019-03-21T18:36:42.736Z,35.63
2019-03-21T18:39:14.402Z,37.30
2019-03-21T18:41:44.448Z,38.57
2019-03-21T18:44:14.305Z,37.80
2019-03-21T18:46:44.271Z,38.43
2019-03-21T18:49:14.267Z,39.37
2019-03-21T18:51:44.147Z,39.40
2019-03-21T18:54:14.110Z,39.80
2019-03-21T18:56:44.005Z,38.90
2019-03-21T18:59:13.917Z,40.60
2019-03-21T19:01:43.793Z,38.27
2019-03-21T19:04:13.773Z,39.17
2019-03-21T19:06:43.802Z,41.50
2019-03-21T19:09:13.708Z,40.63
2019-03-21T19:11:43.690Z,41.13
2019-03-21T19:14:13.676Z,41.83
2019-03-21T19:16:43.589Z,41.00
2019-03-21T19:19:13.537Z,73.00
2019-03-21T19:21:43.401Z,99.17
2019-03-21T19:24:13.305Z,93.73
2019-03-21T19:26:43.146Z,56.67
2019-03-21T19:29:15.056Z,52.90
2019-03-21T19:31:44.622Z,50.40
2019-03-21T19:34:14.556Z,53.67
2019-03-21T19:36:44.420Z,65.67
2019-03-21T19:39:14.364Z,76.00
2019-03-21T19:41:44.333Z,69.37
2019-03-21T19:44:14.498Z,74.53
2019-03-21T19:46:44.428Z,71.60
2019-03-21T19:49:14.483Z,65.23
2019-03-21T19:51:44.297Z,67.83
2019-03-21T19:54:14.241Z,64.07
2019-03-21T19:56:44.093Z,54.77
2019-03-21T19:59:13.984Z,57.97
2019-03-21T20:01:43.946Z,59.10
2019-03-21T20:04:13.937Z,58.27
2019-03-21T20:06:43.852Z,57.43
2019-03-21T20:09:13.704Z,56.70
2019-03-21T20:11:43.548Z,55.03
2019-03-21T20:14:13.477Z,51.33
2019-03-21T20:16:43.305Z,52.07
2019-03-21T20:19:13.260Z,48.27
2019-03-21T20:21:47.779Z,52.50
2019-03-21T20:24:14.795Z,48.90
2019-03-21T20:26:44.715Z,44.87
2019-03-21T20:29:14.659Z,42.47
2019-03-21T20:31:44.645Z,46.00
2019-03-21T20:34:14.597Z,45.27
2019-03-21T20:36:44.553Z,44.17
2019-03-21T20:39:14.471Z,44.50
2019-03-21T20:41:44.408Z,44.77
2019-03-21T20:44:15.437Z,44.03
2019-03-21T20:46:45.444Z,44.77
2019-03-21T20:49:15.250Z,43.30
2019-03-21T20:51:45.174Z,42.53
2019-03-21T20:54:15.125Z,43.80
2019-03-21T20:56:44.986Z,45.60
2019-03-21T20:59:14.993Z,42.77
2019-03-21T21:01:44.904Z,41.50
2019-03-21T21:04:14.862Z,43.67
2019-03-21T21:06:44.851Z,43.90
2019-03-21T21:09:15.079Z,39.77
2019-03-21T21:11:45.086Z,41.87
2019-03-21T21:14:14.906Z,38.57
2019-03-21T21:16:44.830Z,41.43
2019-03-21T21:19:14.817Z,38.37
2019-03-21T21:21:44.723Z,35.27
2019-03-21T21:24:14.680Z,36.90
2019-03-21T21:26:44.658Z,37.23
2019-03-21T21:29:14.633Z,36.27
2019-03-21T21:31:44.612Z,34.87
2019-03-21T21:34:14.501Z,34.73
2019-03-21T21:36:44.362Z,38.10
2019-03-21T21:39:14.327Z,35.70
2019-03-21T21:41:44.173Z,35.23
2019-03-21T21:44:14.122Z,34.70
2019-03-21T21:46:45.507Z,37.57
2019-03-21T21:49:15.376Z,35.87
2019-03-21T21:51:45.766Z,38.23
2019-03-21T21:54:15.764Z,34.17
2019-03-21T21:56:45.708Z,36.40
2019-03-21T21:59:15.644Z,34.43
2019-03-21T22:01:45.628Z,37.50
2019-03-21T22:04:15.677Z,36.97
2019-03-21T22:06:45.637Z,37.93
2019-03-21T22:09:15.474Z,37.60
2019-03-21T22:11:45.394Z,36.87
2019-03-21T22:14:15.340Z,38.13
2019-03-21T22:16:45.209Z,37.63
2019-03-21T22:19:15.124Z,37.53
2019-03-21T22:21:45.016Z,37.13
2019-03-21T22:24:14.890Z,38.73
2019-03-21T22:26:44.712Z,40.03
2019-03-21T22:29:14.666Z,40.67
2019-03-21T22:31:44.683Z,41.30
2019-03-21T22:34:14.547Z,40.80
2019-03-21T22:36:49.304Z,39.80
2019-03-21T22:39:15.966Z,42.03
2019-03-21T22:41:45.816Z,43.07
2019-03-21T22:44:15.651Z,42.13
2019-03-21T22:46:45.492Z,40.27
2019-03-21T22:49:15.365Z,40.47
2019-03-21T22:51:45.290Z,40.70
2019-03-21T22:54:15.243Z,41.50
2019-03-21T22:56:45.062Z,42.40
2019-03-21T22:59:14.923Z,43.03
2019-03-21T23:01:44.893Z,46.00
2019-03-21T23:04:14.848Z,42.07
2019-03-21T23:06:44.837Z,47.80
2019-03-21T23:09:14.757Z,46.87
2019-03-21T23:11:44.683Z,41.90
2019-03-21T23:14:14.595Z,42.07
2019-03-21T23:16:44.583Z,41.50
2019-03-21T23:19:14.453Z,42.37
2019-03-21T23:21:44.342Z,41.70
2019-03-21T23:24:14.198Z,43.63
2019-03-21T23:26:52.465Z,46.67
2019-03-21T23:29:15.816Z,48.20
2019-03-21T23:31:45.789Z,45.50
2019-03-21T23:34:18.643Z,43.70
2019-03-21T23:36:48.530Z,45.90
2019-03-21T23:39:18.431Z,44.13
2019-03-21T23:41:48.443Z,43.10
2019-03-21T23:44:20.158Z,44.67
2019-03-21T23:46:50.102Z,42.70
2019-03-21T23:49:20.015Z,41.73
2019-03-21T23:51:49.833Z,45.67
2019-03-21T23:54:19.805Z,45.03
2019-03-21T23:56:49.749Z,41.23
2019-03-21T23:59:19.678Z,42.27
